Time;durP1;ratioP1;P1;durP2;ratioP2;P2;SDS_P1;SDS_P2;PMS_P1;PMS_P2;Temp;Humidity;BMP_temperature;BMP_pressure;BME280_temperature;BME280_humidity;BME280_pressure;Samples;Min_cycle;Max_cycle;Signal;HPM_P1;HPM_P2
2022/02/21 00:00:24;;;;;;;6.00;1.85;;;;;;;8.47;84.75;97533.69;2617833;54;20563;-67
2022/02/21 00:02:57;;;;;;;6.47;1.80;;;;;;;8.42;84.86;97526.41;2618328;54;20541;-65
2022/02/21 00:05:27;;;;;;;3.42;1.50;;;;;;;8.43;85.06;97519.31;2618386;54;20081;-66
2022/02/21 00:07:56;;;;;;;3.53;1.60;;;;;;;8.40;85.02;97502.09;2618265;54;20053;-66
2022/02/21 00:10:26;;;;;;;3.65;1.55;;;;;;;8.35;86.12;97501.91;2619259;54;20549;-66
2022/02/21 00:12:56;;;;;;;4.53;1.92;;;;;;;8.37;85.75;97509.63;2620716;54;20077;-68
2022/02/21 00:15:27;;;;;;;4.65;1.60;;;;;;;8.39;85.96;97520.75;2621059;54;20038;-68
2022/02/21 00:18:01;;;;;;;6.97;1.80;;;;;;;8.41;85.87;97500.31;2620866;54;20030;-65
2022/02/21 00:20:31;;;;;;;8.52;2.08;;;;;;;8.40;85.47;97499.47;2620591;54;20026;-66
2022/02/21 00:23:00;;;;;;;4.78;2.25;;;;;;;8.42;85.52;97483.47;2620547;54;20033;-67
2022/02/21 00:25:30;;;;;;;3.92;1.30;;;;;;;8.40;86.09;97496.03;2620809;54;20062;-68
2022/02/21 00:27:59;;;;;;;4.20;1.67;;;;;;;8.40;86.08;97488.94;2620637;54;20576;-70
2022/02/21 00:30:29;;;;;;;3.63;1.33;;;;;;;8.41;85.59;97466.88;2620731;54;20790;-66
2022/02/21 00:33:05;;;;;;;5.75;1.60;;;;;;;8.46;84.97;97460.16;2619679;54;20026;-70
2022/02/21 00:35:34;;;;;;;7.22;2.13;;;;;;;8.49;84.70;97457.91;2618673;54;20022;-70
2022/02/21 00:38:04;;;;;;;5.93;1.45;;;;;;;8.51;84.15;97460.31;2620853;54;20035;-71
2022/02/21 00:40:34;;;;;;;5.38;1.70;;;;;;;8.53;84.18;97419.59;2623472;54;20094;-71
2022/02/21 00:43:04;;;;;;;4.60;1.60;;;;;;;8.53;84.28;97418.75;2624380;54;20045;-70
2022/02/21 00:45:34;;;;;;;3.85;1.80;;;;;;;8.58;83.88;97397.88;2624356;39;20205;-70
2022/02/21 00:48:07;;;;;;;5.13;1.65;;;;;;;8.56;84.03;97413.88;2624354;47;20648;-68
2022/02/21 00:50:37;;;;;;;6.22;1.73;;;;;;;8.60;83.76;97407.16;2623873;54;20041;-66
2022/02/21 00:53:07;;;;;;;5.40;1.30;;;;;;;8.63;83.41;97448.09;2624361;54;20057;-68
2022/02/21 00:55:37;;;;;;;4.72;1.73;;;;;;;8.68;82.40;97412.16;2623242;47;20034;-69
2022/02/21 00:58:07;;;;;;;8.98;1.85;;;;;;;8.64;83.45;97373.31;2621315;54;20039;-69
2022/02/21 01:00:37;;;;;;;8.45;1.83;;;;;;;8.61;83.11;97382.47;2617861;54;20062;-68
2022/02/21 01:03:10;;;;;;;3.60;1.45;;;;;;;8.65;83.18;97383.66;2617183;54;20575;-68
2022/02/21 01:05:40;;;;;;;3.95;1.42;;;;;;;8.66;83.08;97381.81;2618072;39;20441;-68
2022/02/21 01:08:10;;;;;;;4.43;1.67;;;;;;;8.62;84.04;97367.47;2617720;54;20113;-68
2022/02/21 01:10:41;;;;;;;6.72;1.70;;;;;;;8.62;84.08;97373.53;2618781;39;20469;-67
2022/02/21 01:13:11;;;;;;;6.15;1.70;;;;;;;8.63;83.28;97367.22;2617978;54;20033;-67
2022/02/21 01:15:40;;;;;;;3.08;1.27;;;;;;;8.63;83.44;97366.44;2617081;54;20038;-67
2022/02/21 01:18:13;;;;;;;6.10;1.60;;;;;;;8.65;83.67;97353.84;2617777;54;20031;-68
2022/02/21 01:20:43;;;;;;;4.80;1.60;;;;;;;8.61;83.70;97371.91;2617724;54;20085;-68
2022/02/21 01:23:12;;;;;;;2.20;1.10;;;;;;;8.64;83.66;97360.13;2617817;54;20037;-68
2022/02/21 01:25:42;;;;;;;2.95;1.20;;;;;;;8.63;84.65;97369.88;2617727;54;20081;-67
2022/02/21 01:28:12;;;;;;;2.47;1.08;;;;;;;8.65;84.76;97377.53;2617242;47;20057;-68
2022/02/21 01:30:41;;;;;;;3.00;1.30;;;;;;;8.65;84.25;97354.66;2618330;39;20762;-67
2022/02/21 01:33:14;;;;;;;4.57;1.30;;;;;;;8.61;84.32;97360.56;2618750;39;20410;-68
2022/02/21 01:35:43;;;;;;;2.28;1.20;;;;;;;8.55;85.50;97349.06;2617388;54;20038;-69
2022/02/21 01:38:13;;;;;;;4.57;1.42;;;;;;;8.52;85.77;97354.75;2618168;54;20034;-67
2022/02/21 01:40:42;;;;;;;3.85;1.48;;;;;;;8.49;86.44;97355.19;2617747;54;20039;-68
2022/02/21 01:43:12;;;;;;;3.60;1.30;;;;;;;8.48;86.98;97339.59;2616865;47;20035;-69
2022/02/21 01:45:42;;;;;;;1.63;0.90;;;;;;;8.50;85.94;97374.44;2617541;54;20065;-68
2022/02/21 01:48:15;;;;;;;5.60;1.63;;;;;;;8.47;87.20;97369.59;2617502;54;20070;-69
2022/02/21 01:50:45;;;;;;;2.05;0.95;;;;;;;8.48;87.38;97426.50;2617726;54;20089;-68
2022/02/21 01:53:15;;;;;;;6.78;1.30;;;;;;;8.37;88.10;97449.88;2617986;39;20541;-68
2022/02/21 01:55:46;;;;;;;1.52;1.00;;;;;;;8.22;89.10;97438.78;2617479;54;20222;-68
2022/02/21 01:58:16;;;;;;;3.90;1.27;;;;;;;8.08;89.28;97445.09;2617620;54;20066;-68
2022/02/21 02:00:49;;;;;;;2.30;1.02;;;;;;;8.03;89.10;97468.63;2618097;54;20035;-68
2022/02/21 02:03:22;;;;;;;2.92;0.98;;;;;;;7.98;87.19;97469.25;2619273;39;20525;-68
2022/02/21 02:05:51;;;;;;;8.55;1.05;;;;;;;7.89;87.65;97481.03;2617768;54;20057;-69
2022/02/21 02:08:21;;;;;;;2.28;1.00;;;;;;;7.79;86.37;97504.31;2618244;54;20042;-69
2022/02/21 02:10:50;;;;;;;4.55;1.40;;;;;;;7.62;86.48;97553.94;2617670;47;20042;-67
2022/02/21 02:13:20;;;;;;;4.30;1.35;;;;;;;7.41;85.11;97562.84;2618725;54;20065;-67
2022/02/21 02:15:54;;;;;;;4.80;1.50;;;;;;;7.11;84.97;97575.56;2618387;54;20129;-67
2022/02/21 02:18:26;;;;;;;8.65;1.73;;;;;;;6.91;83.16;97565.84;2618950;54;20038;-68
2022/02/21 02:20:55;;;;;;;4.03;0.82;;;;;;;6.72;81.24;97521.94;2620411;54;20307;-67
2022/02/21 02:23:28;;;;;;;1.73;0.75;;;;;;;6.66;78.76;97554.25;2623880;54;20026;-68
2022/02/21 02:25:57;;;;;;;8.70;1.20;;;;;;;6.60;80.14;97555.84;2621929;54;20031;-68
2022/02/21 02:28:27;;;;;;;5.03;1.10;;;;;;;6.60;79.85;97550.59;2619627;31;20546;-68
2022/02/21 02:30:57;;;;;;;3.85;1.08;;;;;;;6.61;80.60;97539.09;2618558;47;20042;-67
2022/02/21 02:33:26;;;;;;;5.07;1.45;;;;;;;6.66;79.60;97502.53;2617807;54;20041;-68
2022/02/21 02:35:56;;;;;;;4.40;1.63;;;;;;;6.68;79.02;97503.13;2618106;54;20100;-68
2022/02/21 02:38:28;;;;;;;4.50;1.38;;;;;;;6.70;79.36;97490.63;2618202;54;20565;-68
2022/02/21 02:40:59;;;;;;;6.80;1.10;;;;;;;6.72;78.90;97498.31;2618819;39;20429;-70
2022/02/21 02:43:29;;;;;;;5.57;1.50;;;;;;;6.73;77.92;97491.22;2618342;54;20038;-70
2022/02/21 02:45:58;;;;;;;7.50;1.20;;;;;;;6.73;78.12;97514.88;2617698;47;20038;-68
2022/02/21 02:48:28;;;;;;;5.07;1.50;;;;;;;6.74;76.92;97504.19;2618028;54;20038;-68
2022/02/21 02:50:57;;;;;;;6.07;1.67;;;;;;;6.78;76.83;97496.72;2618252;54;20065;-68
2022/02/21 02:53:30;;;;;;;7.50;1.60;;;;;;;6.70;75.96;97508.22;2618203;54;20030;-68
2022/02/21 02:56:00;;;;;;;6.70;1.50;;;;;;;6.66;76.13;97507.78;2618062;54;20041;-68
2022/02/21 02:58:30;;;;;;;8.27;1.73;;;;;;;6.67;75.19;97512.03;2618068;54;20042;-68
2022/02/21 03:00:59;;;;;;;11.38;2.25;;;;;;;6.61;74.66;97527.75;2618053;54;20545;-68
2022/02/21 03:03:29;;;;;;;6.93;1.85;;;;;;;6.56;74.06;97528.38;2617962;54;20022;-68
2022/02/21 03:05:59;;;;;;;7.13;1.83;;;;;;;6.54;73.58;97530.38;2617623;54;20030;-68
2022/02/21 03:08:31;;;;;;;7.90;2.08;;;;;;;6.53;73.97;97534.03;2618025;54;20034;-67
2022/02/21 03:11:00;;;;;;;12.13;2.53;;;;;;;6.53;72.64;97528.78;2618174;54;20054;-68
2022/02/21 03:13:30;;;;;;;7.03;1.80;;;;;;;6.52;72.78;97507.94;2618094;39;20437;-70
2022/02/21 03:16:00;;;;;;;10.57;1.95;;;;;;;6.50;72.27;97538.88;2618103;54;20077;-69
2022/02/21 03:18:29;;;;;;;7.93;1.88;;;;;;;6.49;71.89;97550.34;2617693;54;20030;-69
2022/02/21 03:20:59;;;;;;;9.18;2.08;;;;;;;6.50;72.64;97546.75;2618682;39;20462;-68
2022/02/21 03:23:31;;;;;;;6.68;1.95;;;;;;;6.48;71.38;97557.41;2618229;54;20030;-70
2022/02/21 03:26:01;;;;;;;5.78;1.17;;;;;;;6.44;69.86;97574.56;2617363;47;20077;-65
2022/02/21 03:28:30;;;;;;;13.65;2.38;;;;;;;6.39;70.53;97580.41;2617895;54;20033;-69
2022/02/21 03:31:00;;;;;;;7.55;1.60;;;;;;;6.37;69.98;97571.94;2617741;54;20039;-69
2022/02/21 03:33:30;;;;;;;8.13;2.13;;;;;;;6.39;69.11;97579.59;2617917;54;20085;-68
2022/02/21 03:35:59;;;;;;;5.80;1.45;;;;;;;6.37;68.27;97587.69;2617963;54;20035;-67
2022/02/21 03:38:31;;;;;;;7.65;1.35;;;;;;;6.31;67.19;97587.66;2618053;54;20031;-69
2022/02/21 03:41:01;;;;;;;9.75;1.80;;;;;;;6.31;67.83;97601.56;2618087;54;20035;-69
2022/02/21 03:43:31;;;;;;;6.32;1.75;;;;;;;6.30;67.75;97607.03;2618128;54;20026;-66
2022/02/21 03:46:00;;;;;;;6.10;1.98;;;;;;;6.29;67.67;97593.09;2617265;54;20026;-67
2022/02/21 03:48:30;;;;;;;10.20;1.95;;;;;;;6.24;67.70;97608.59;2620636;31;20553;-67
2022/02/21 03:51:00;;;;;;;7.65;2.40;;;;;;;6.22;67.96;97604.56;2623652;54;20034;-67
2022/02/21 03:53:32;;;;;;;7.07;2.05;;;;;;;6.26;68.12;97617.09;2620372;54;20073;-67
2022/02/21 03:56:01;;;;;;;8.82;1.65;;;;;;;6.22;67.81;97620.31;2617924;54;20027;-66
2022/02/21 03:58:31;;;;;;;8.80;2.53;;;;;;;6.15;66.29;97626.31;2618150;54;20133;-67
2022/02/21 04:01:01;;;;;;;6.05;1.75;;;;;;;6.15;66.19;97633.38;2618777;31;20532;-67
2022/02/21 04:03:30;;;;;;;9.70;2.05;;;;;;;6.11;66.15;97640.00;2617725;54;20122;-68
2022/02/21 04:06:00;;;;;;;11.98;1.83;;;;;;;6.09;65.94;97628.91;2617065;47;20034;-68
2022/02/21 04:08:32;;;;;;;7.35;1.80;;;;;;;6.03;65.35;97634.91;2617436;54;20665;-68
2022/02/21 04:11:02;;;;;;;7.45;1.95;;;;;;;5.94;64.17;97626.38;2618640;54;20026;-66
2022/02/21 04:13:31;;;;;;;4.57;1.85;;;;;;;5.80;64.55;97637.78;2619330;54;20027;-67
2022/02/21 04:16:01;;;;;;;11.43;1.80;;;;;;;5.77;64.25;97649.44;2622005;39;20431;-67
2022/02/21 04:18:31;;;;;;;11.07;2.03;;;;;;;5.66;64.73;97653.38;2620504;39;20430;-68
2022/02/21 04:21:00;;;;;;;8.38;1.92;;;;;;;5.63;64.42;97642.44;2622491;54;20022;-67
2022/02/21 04:23:32;;;;;;;12.23;2.10;;;;;;;5.58;63.74;97668.44;2621617;54;20030;-67
2022/02/21 04:26:02;;;;;;;7.97;2.72;;;;;;;5.56;64.32;97678.31;2620354;51;20030;-67
2022/02/21 04:28:32;;;;;;;11.82;3.33;;;;;;;5.49;63.60;97680.06;2621917;54;20029;-67
2022/02/21 04:31:01;;;;;;;7.65;1.92;;;;;;;5.42;63.33;97686.03;2622452;54;20077;-68
2022/02/21 04:33:31;;;;;;;8.57;1.60;;;;;;;5.40;62.83;97688.03;2622085;54;20038;-68
2022/02/21 04:36:00;;;;;;;11.40;2.15;;;;;;;5.39;62.39;97689.03;2621496;54;20073;-67
2022/02/21 04:38:32;;;;;;;7.30;2.08;;;;;;;5.36;62.67;97702.50;2623244;54;20161;-67
2022/02/21 04:41:02;;;;;;;10.77;2.10;;;;;;;5.30;63.11;97674.41;2623657;54;20037;-68
2022/02/21 04:43:32;;;;;;;11.38;2.33;;;;;;;5.25;63.18;97692.50;2621809;47;20038;-67
2022/02/21 04:46:01;;;;;;;14.77;2.75;;;;;;;5.25;63.74;97697.75;2623649;39;20457;-68
2022/02/21 04:48:32;;;;;;;12.50;2.30;;;;;;;5.23;63.37;97705.00;2619644;54;20061;-68
2022/02/21 04:51:01;;;;;;;14.43;2.08;;;;;;;5.21;63.01;97701.75;2620803;54;20046;-68
2022/02/21 04:53:34;;;;;;;5.50;1.20;;;;;;;5.18;63.34;97704.72;2620513;54;20033;-68
2022/02/21 04:56:03;;;;;;;5.05;1.95;;;;;;;5.09;62.55;97724.19;2621388;54;20019;-66
2022/02/21 04:58:33;;;;;;;13.15;2.75;;;;;;;5.06;62.54;97727.16;2621184;54;20538;-67
2022/02/21 05:01:03;;;;;;;9.63;2.40;;;;;;;5.03;62.58;97714.44;2618781;54;20537;-67
2022/02/21 05:03:32;;;;;;;10.13;2.33;;;;;;;5.03;62.65;97709.22;2617795;54;20041;-68
2022/02/21 05:06:02;;;;;;;16.05;2.88;;;;;;;4.95;61.90;97721.41;2618515;39;20453;-67
2022/02/21 05:08:34;;;;;;;11.05;2.58;;;;;;;4.88;62.09;97717.06;2622768;54;20038;-68
2022/02/21 05:11:05;;;;;;;11.55;2.63;;;;;;;4.81;61.43;97711.75;2625812;54;20015;-67
2022/02/21 05:13:37;;;;;;;13.02;2.95;;;;;;;4.75;61.47;97709.06;2627161;54;20061;-70
2022/02/21 05:16:07;;;;;;;13.60;2.63;;;;;;;4.74;61.13;97723.97;2624352;47;20545;-69
2022/02/21 05:18:37;;;;;;;13.48;2.70;;;;;;;4.74;60.90;97729.19;2623161;54;20030;-69
2022/02/21 05:21:06;;;;;;;14.63;2.60;;;;;;;4.69;60.04;97728.91;2624492;54;20022;-66
2022/02/21 05:23:38;;;;;;;11.70;2.45;;;;;;;4.70;60.53;97735.78;2624778;54;20026;-67
2022/02/21 05:26:08;;;;;;;15.45;3.47;;;;;;;4.65;60.40;97730.25;2623777;54;20041;-66
2022/02/21 05:28:37;;;;;;;13.73;2.70;;;;;;;4.64;60.61;97715.56;2620251;39;20426;-69
2022/02/21 05:31:07;;;;;;;13.20;3.17;;;;;;;4.64;60.64;97726.84;2624158;54;20038;-70
2022/02/21 05:33:36;;;;;;;10.77;2.60;;;;;;;4.62;60.86;97728.03;2620507;47;20518;-65
2022/02/21 05:36:07;;;;;;;10.00;2.47;;;;;;;4.62;60.51;97728.84;2624006;54;20026;-66
2022/02/21 05:38:39;;;;;;;13.70;2.90;;;;;;;4.59;61.23;97754.56;2626034;54;20031;-66
2022/02/21 05:41:08;;;;;;;15.60;2.92;;;;;;;4.57;60.96;97765.22;2625982;54;20025;-66
2022/02/21 05:43:38;;;;;;;10.20;2.53;;;;;;;4.53;61.60;97769.19;2621175;54;20038;-67
2022/02/21 05:46:08;;;;;;;13.52;3.20;;;;;;;4.50;61.79;97776.59;2618754;54;20045;-66
2022/02/21 05:48:37;;;;;;;17.20;2.72;;;;;;;4.47;61.68;97781.16;2618811;54;20063;-69
2022/02/21 05:51:07;;;;;;;11.65;2.95;;;;;;;4.48;62.02;97781.97;2618329;54;20027;-66
2022/02/21 05:53:44;;;;;;;15.10;3.20;;;;;;;4.50;62.58;97790.47;2617869;54;20031;-66
2022/02/21 05:56:13;;;;;;;11.15;3.08;;;;;;;4.50;62.70;97787.88;2617907;47;20035;-68
2022/02/21 05:58:44;;;;;;;17.17;2.85;;;;;;;4.45;62.53;97793.63;2617686;47;20058;-66
2022/02/21 06:01:13;;;;;;;11.07;3.05;;;;;;;4.40;62.79;97788.09;2618580;54;20018;-69
2022/02/21 06:03:44;;;;;;;19.95;3.30;;;;;;;4.41;62.69;97788.94;2617459;47;20026;-67
2022/02/21 06:06:13;;;;;;;13.95;2.85;;;;;;;4.40;62.56;97790.72;2618224;54;20034;-69
2022/02/21 06:08:45;;;;;;;11.55;2.90;;;;;;;4.40;62.70;97798.56;2618302;54;20138;-69
2022/02/21 06:11:15;;;;;;;20.98;3.25;;;;;;;4.39;62.96;97796.94;2617744;54;20030;-68
2022/02/21 06:13:45;;;;;;;14.10;3.55;;;;;;;4.43;62.42;97779.91;2618160;54;20068;-69
2022/02/21 06:16:14;;;;;;;19.13;3.65;;;;;;;4.41;62.68;97784.50;2618129;54;20042;-67
2022/02/21 06:18:44;;;;;;;15.18;3.30;;;;;;;4.40;63.02;97797.75;2617727;47;20035;-70
2022/02/21 06:21:13;;;;;;;16.48;3.47;;;;;;;4.40;62.61;97808.22;2618305;54;20015;-69
2022/02/21 06:23:45;;;;;;;14.55;4.13;;;;;;;4.40;62.22;97811.66;2618379;54;20065;-69
2022/02/21 06:26:16;;;;;;;9.63;2.35;;;;;;;4.50;62.18;97800.13;2618232;54;20027;-70
2022/02/21 06:28:46;;;;;;;12.50;2.70;;;;;;;4.51;61.73;97807.00;2618219;54;20034;-68
2022/02/21 06:31:15;;;;;;;11.25;3.47;;;;;;;4.51;62.33;97805.19;2618479;54;20049;-67
2022/02/21 06:33:45;;;;;;;19.30;4.32;;;;;;;4.57;61.85;97819.34;2618148;54;20130;-68
2022/02/21 06:36:15;;;;;;;10.45;2.55;;;;;;;4.63;61.65;97818.66;2618154;54;20034;-70
2022/02/21 06:38:47;;;;;;;16.35;3.38;;;;;;;4.67;61.45;97820.72;2618241;54;20117;-68
2022/02/21 06:41:17;;;;;;;16.25;3.50;;;;;;;4.73;61.33;97813.94;2618255;54;20026;-67
2022/02/21 06:43:46;;;;;;;18.60;3.50;;;;;;;4.82;61.14;97815.53;2619485;54;20031;-68
2022/02/21 06:46:16;;;;;;;16.77;3.58;;;;;;;4.79;60.93;97822.91;2624292;54;20034;-67
2022/02/21 06:48:46;;;;;;;22.65;3.92;;;;;;;4.74;61.44;97823.47;2621456;54;20038;-69
2022/02/21 06:51:15;;;;;;;19.95;4.20;;;;;;;4.80;61.40;97841.06;2618383;54;20038;-67
2022/02/21 06:53:47;;;;;;;19.75;4.45;;;;;;;4.82;60.78;97831.22;2618326;54;20129;-67
2022/02/21 06:56:17;;;;;;;17.73;3.47;;;;;;;4.74;61.47;97851.44;2618417;54;20038;-67
2022/02/21 06:58:47;;;;;;;9.43;2.20;;;;;;;4.69;61.15;97860.66;2618191;54;20045;-67
2022/02/21 07:01:16;;;;;;;8.13;2.13;;;;;;;4.58;61.62;97871.53;2618541;54;20025;-67
2022/02/21 07:03:46;;;;;;;10.85;2.05;;;;;;;4.42;63.75;97896.03;2617592;54;20150;-67
2022/02/21 07:06:15;;;;;;;14.40;3.13;;;;;;;4.28;66.02;97877.66;2617762;54;20038;-67
2022/02/21 07:08:48;;;;;;;4.75;1.17;;;;;;;4.07;67.96;97891.38;2617970;54;20077;-67
2022/02/21 07:11:17;;;;;;;6.10;1.55;;;;;;;4.01;69.06;97879.81;2618445;54;20023;-67
2022/02/21 07:13:50;;;;;;;6.78;2.20;;;;;;;3.93;69.56;97879.88;2617684;54;20039;-66
2022/02/21 07:16:20;;;;;;;6.15;2.38;;;;;;;4.01;69.54;97881.63;2618282;54;20029;-67
2022/02/21 07:18:49;;;;;;;7.20;2.05;;;;;;;4.04;70.36;97884.72;2617580;47;20050;-67
2022/02/21 07:21:19;;;;;;;14.18;2.33;;;;;;;3.98;70.06;97891.44;2618138;54;20042;-67
2022/02/21 07:23:51;;;;;;;10.43;2.00;;;;;;;4.00;70.55;97898.28;2618278;54;20038;-67
2022/02/21 07:26:22;;;;;;;9.73;2.50;;;;;;;4.02;70.98;97914.63;2618194;54;20026;-67
2022/02/21 07:28:51;;;;;;;14.35;3.28;;;;;;;4.00;72.25;97922.66;2618326;54;20027;-67
2022/02/21 07:31:21;;;;;;;8.02;2.70;;;;;;;4.07;72.87;97920.97;2618014;54;20148;-68
2022/02/21 07:33:50;;;;;;;11.68;3.10;;;;;;;4.11;73.03;97927.47;2617858;54;20050;-69
2022/02/21 07:36:20;;;;;;;14.23;2.80;;;;;;;4.17;72.74;97913.72;2618025;54;20033;-66
2022/02/21 07:38:52;;;;;;;17.33;3.08;;;;;;;4.30;72.67;97915.75;2617940;54;20600;-67
2022/02/21 07:41:22;;;;;;;16.95;3.45;;;;;;;4.34;72.10;97927.50;2617835;54;20026;-69
2022/02/21 07:43:51;;;;;;;16.70;3.78;;;;;;;4.35;72.19;97923.88;2617995;54;20050;-67
2022/02/21 07:46:21;;;;;;;21.33;3.92;;;;;;;4.35;71.36;97929.13;2618015;54;20033;-66
2022/02/21 07:48:51;;;;;;;17.30;4.28;;;;;;;4.41;71.26;97933.69;2618405;54;20550;-67
2022/02/21 07:51:20;;;;;;;26.75;4.90;;;;;;;4.41;70.92;97944.16;2617877;54;20027;-67
2022/02/21 07:53:52;;;;;;;12.90;3.25;;;;;;;4.42;71.08;97943.16;2618479;54;20035;-66
2022/02/21 07:56:37;;;;;;;12.10;4.03;;;;;;;4.49;70.77;97966.84;2617780;54;20105;-67
2022/02/21 07:59:06;;;;;;;16.40;2.42;;;;;;;4.43;69.35;97952.63;2617791;54;20077;-67
2022/02/21 08:01:36;;;;;;;13.45;3.08;;;;;;;4.36;69.46;97956.91;2617723;54;20113;-68
2022/02/21 08:04:05;;;;;;;9.30;2.45;;;;;;;4.38;69.86;97952.34;2617466;54;20050;-67
2022/02/21 08:06:35;;;;;;;7.32;2.28;;;;;;;4.28;70.45;97959.56;2617789;54;20034;-67
2022/02/21 08:09:07;;;;;;;4.50;1.48;;;;;;;4.19;70.89;97966.66;2617776;54;20030;-67
2022/02/21 08:11:37;;;;;;;2.45;1.15;;;;;;;4.08;71.90;97963.63;2618791;31;20526;-67
2022/02/21 08:14:07;;;;;;;4.53;1.67;;;;;;;3.97;72.97;97985.75;2624310;54;20034;-68
2022/02/21 08:16:36;;;;;;;3.28;1.50;;;;;;;3.84;73.78;97999.38;2621854;54;20034;-67
2022/02/21 08:19:06;;;;;;;7.15;1.45;;;;;;;3.86;73.87;97986.13;2617644;54;20042;-66
2022/02/21 08:21:37;;;;;;;5.07;1.67;;;;;;;3.86;74.11;97989.56;2617457;47;20046;-66
2022/02/21 08:24:09;;;;;;;1.40;1.20;;;;;;;3.91;74.64;97963.69;2617807;54;20046;-66
2022/02/21 08:26:39;;;;;;;4.15;1.55;;;;;;;3.81;74.44;97951.84;2617847;54;20081;-67
2022/02/21 08:29:08;;;;;;;3.83;1.65;;;;;;;3.85;74.75;97950.50;2617763;54;20058;-67
2022/02/21 08:31:38;;;;;;;4.03;1.67;;;;;;;3.86;74.81;97959.97;2617064;54;20027;-65
2022/02/21 08:34:08;;;;;;;2.22;1.40;;;;;;;4.01;74.66;97960.91;2617657;54;20058;-66
2022/02/21 08:36:37;;;;;;;2.60;1.42;;;;;;;4.14;74.13;97955.09;2617856;54;20568;-66
2022/02/21 08:39:09;;;;;;;3.63;1.35;;;;;;;4.19;73.65;97958.00;2617685;54;20074;-67
2022/02/21 08:41:39;;;;;;;4.35;2.13;;;;;;;4.28;73.39;97962.19;2616980;54;20026;-66
2022/02/21 08:44:09;;;;;;;4.07;1.65;;;;;;;4.36;72.90;97964.75;2617011;54;20065;-70
2022/02/21 08:46:38;;;;;;;6.53;1.85;;;;;;;4.41;72.20;97966.88;2618083;39;20438;-69
2022/02/21 08:49:08;;;;;;;7.63;2.20;;;;;;;4.50;71.56;97968.44;2617834;54;20054;-69
2022/02/21 08:51:38;;;;;;;4.70;2.00;;;;;;;4.60;70.89;97976.06;2617702;54;20038;-69
2022/02/21 08:54:10;;;;;;;4.18;1.77;;;;;;;4.69;71.03;97982.84;2617612;54;20557;-68
2022/02/21 08:56:40;;;;;;;6.25;1.40;;;;;;;4.69;71.37;97990.72;2617714;54;20541;-69
2022/02/21 08:59:09;;;;;;;4.00;1.45;;;;;;;4.66;71.42;97991.91;2617708;54;20038;-69
2022/02/21 09:01:42;;;;;;;6.97;2.08;;;;;;;4.69;71.96;97986.31;2617623;54;20854;-69
2022/02/21 09:04:12;;;;;;;5.28;2.20;;;;;;;4.89;71.76;97983.19;2617204;54;20629;-67
2022/02/21 09:06:42;;;;;;;2.65;1.70;;;;;;;5.07;71.06;97980.28;2617458;54;20041;-66
2022/02/21 09:09:22;;;;;;;4.72;1.65;;;;;;;5.27;70.63;97977.97;2617617;54;20035;-66
2022/02/21 09:11:52;;;;;;;6.55;2.17;;;;;;;5.33;69.65;97972.00;2617278;54;20592;-68
2022/02/21 09:14:22;;;;;;;11.20;6.10;;;;;;;5.45;70.05;97978.44;2617863;39;20419;-67
2022/02/21 09:16:51;;;;;;;7.28;2.75;;;;;;;5.54;69.30;97981.78;2617455;54;20076;-70
2022/02/21 09:19:22;;;;;;;8.43;2.97;;;;;;;5.59;68.72;97982.88;2617533;54;20034;-69
2022/02/21 09:21:51;;;;;;;6.75;3.30;;;;;;;5.40;68.52;97978.16;2617873;39;20528;-68
2022/02/21 09:24:25;;;;;;;8.73;2.58;;;;;;;5.37;68.02;97973.28;2617527;54;20549;-67
2022/02/21 09:26:55;;;;;;;9.15;2.72;;;;;;;5.33;68.55;97988.53;2617504;54;20026;-64
2022/02/21 09:29:25;;;;;;;7.05;1.60;;;;;;;5.28;67.89;97995.31;2617519;54;20038;-68
2022/02/21 09:31:56;;;;;;;4.53;1.83;;;;;;;5.24;68.56;97979.13;2618560;54;20061;-66
2022/02/21 09:34:25;;;;;;;5.03;2.10;;;;;;;5.51;68.06;98001.31;2619378;47;20029;-68
2022/02/21 09:36:55;;;;;;;4.75;1.55;;;;;;;5.56;67.00;97977.19;2619356;54;20063;-67
2022/02/21 09:39:29;;;;;;;8.52;4.10;;;;;;;5.66;67.43;97965.41;2619121;54;20031;-67
2022/02/21 09:41:59;;;;;;;7.88;2.55;;;;;;;5.82;67.31;97964.41;2620558;54;20042;-67
2022/02/21 09:44:29;;;;;;;9.40;1.90;;;;;;;5.86;66.39;97970.91;2619261;54;20037;-68
2022/02/21 09:46:59;;;;;;;6.07;2.03;;;;;;;5.79;66.01;97963.94;2619140;47;20045;-68
2022/02/21 09:49:30;;;;;;;9.10;2.75;;;;;;;5.86;66.31;97956.97;2618372;54;20038;-68
2022/02/21 09:52:00;;;;;;;7.13;1.90;;;;;;;5.92;64.86;97953.69;2617542;54;20026;-65
2022/02/21 09:54:33;;;;;;;9.68;2.75;;;;;;;5.99;66.00;97964.22;2617276;54;20053;-67
2022/02/21 09:57:02;;;;;;;8.27;2.22;;;;;;;5.94;65.44;97965.59;2617688;54;20026;-65
2022/02/21 09:59:32;;;;;;;8.52;2.13;;;;;;;5.85;65.75;97953.56;2617563;54;20035;-66
2022/02/21 10:02:03;;;;;;;9.27;2.03;;;;;;;5.91;66.61;97952.81;2617578;54;20061;-66
2022/02/21 10:04:32;;;;;;;7.88;2.60;;;;;;;5.97;67.12;97953.94;2617440;54;20029;-66
2022/02/21 10:07:02;;;;;;;8.13;2.15;;;;;;;5.88;67.13;97957.63;2617627;54;20565;-68
2022/02/21 10:09:40;;;;;;;8.27;2.85;;;;;;;5.90;68.14;97960.88;2617694;54;20038;-66
2022/02/21 10:12:23;;;;;;;8.77;2.90;;;;;;;5.76;68.39;97956.47;2617369;54;20042;-65
2022/02/21 10:14:54;;;;;;;11.52;4.38;;;;;;;5.70;69.20;97958.81;2617362;54;20038;-65
2022/02/21 10:17:27;;;;;;;12.82;3.70;;;;;;;5.58;69.18;97951.56;2617549;54;20035;-65
2022/02/21 10:20:07;;;;;;;9.82;3.70;;;;;;;5.63;69.53;97946.59;2617420;54;20162;-66
2022/02/21 10:22:37;;;;;;;8.75;3.00;;;;;;;5.66;68.64;97941.00;2617792;54;20038;-65
2022/02/21 10:25:21;;;;;;;14.55;4.60;;;;;;;5.83;69.09;97938.97;2618196;54;20035;-65
2022/02/21 10:27:50;;;;;;;9.85;3.30;;;;;;;6.03;68.18;97944.50;2618815;54;20137;-66
2022/02/21 10:30:21;;;;;;;13.25;2.63;;;;;;;6.07;67.90;97937.88;2619123;39;20457;-65
2022/02/21 10:33:14;;;;;;;8.27;2.17;;;;;;;5.99;67.74;97949.31;2618009;54;20034;-66
2022/02/21 10:35:44;;;;;;;7.75;2.63;;;;;;;6.03;66.31;97953.19;2618784;31;20523;-66
2022/02/21 10:38:13;;;;;;;10.32;2.85;;;;;;;6.18;66.45;97947.91;2618406;54;20038;-65
2022/02/21 10:40:46;;;;;;;10.25;2.60;;;;;;;6.25;65.51;97948.81;2617705;47;20026;-67
2022/02/21 10:43:17;;;;;;;11.60;2.90;;;;;;;6.32;65.81;97954.09;2618160;39;20429;-66
2022/02/21 10:45:48;;;;;;;7.70;2.53;;;;;;;6.26;64.46;97957.47;2617940;54;20031;-65
2022/02/21 10:48:21;;;;;;;10.88;3.00;;;;;;;6.19;64.37;97944.28;2618017;39;20418;-66
2022/02/21 10:50:59;;;;;;;23.97;7.23;;;;;;;6.33;64.46;97942.63;2618329;54;20043;-65
2022/02/21 10:53:40;;;;;;;24.90;7.05;;;;;;;6.49;63.17;97936.28;2618272;54;20038;-66
2022/02/21 10:56:13;;;;;;;23.42;5.28;;;;;;;6.51;62.45;97940.38;2618051;54;20034;-66
2022/02/21 10:58:43;;;;;;;18.88;4.03;;;;;;;6.43;61.94;97949.19;2618210;54;20054;-66
2022/02/21 11:01:12;;;;;;;10.68;3.85;;;;;;;6.33;61.59;97926.88;2618272;54;20033;-66
2022/02/21 11:03:43;;;;;;;15.85;4.80;;;;;;;6.36;61.21;97918.59;2618271;54;20541;-65
2022/02/21 11:06:13;;;;;;;13.80;3.92;;;;;;;6.49;61.04;97921.38;2617984;54;20018;-67
2022/02/21 11:08:43;;;;;;;13.85;4.25;;;;;;;6.63;61.11;97925.75;2617983;54;20036;-67
2022/02/21 11:11:16;;;;;;;9.85;3.15;;;;;;;6.63;60.54;97932.81;2618099;54;20034;-66
2022/02/21 11:13:49;;;;;;;11.77;4.00;;;;;;;6.59;60.37;97913.19;2617273;54;20555;-66
2022/02/21 11:16:19;;;;;;;13.15;3.53;;;;;;;6.74;59.90;97913.09;2619149;54;20037;-64
2022/02/21 11:18:49;;;;;;;13.07;3.55;;;;;;;6.94;59.53;97907.00;2623669;54;20037;-63
2022/02/21 11:21:20;;;;;;;12.98;3.20;;;;;;;7.07;59.30;97910.72;2624011;54;20517;-64
2022/02/21 11:23:49;;;;;;;10.65;2.97;;;;;;;7.30;59.42;97887.59;2623549;39;20415;-65
2022/02/21 11:26:29;;;;;;;12.50;3.63;;;;;;;7.48;59.16;97883.66;2623480;54;20015;-63
2022/02/21 11:29:05;;;;;;;16.17;5.30;;;;;;;7.59;57.99;97893.63;2623225;54;20545;-65
2022/02/21 11:31:36;;;;;;;13.80;4.45;;;;;;;7.76;57.49;97873.88;2621110;54;20030;-63
2022/02/21 11:34:09;;;;;;;18.60;6.72;;;;;;;7.68;57.76;97871.41;2623022;54;20030;-63
2022/02/21 11:36:42;;;;;;;11.27;3.70;;;;;;;7.71;57.93;97873.63;2623291;52;20027;-63
2022/02/21 11:39:23;;;;;;;12.90;3.00;;;;;;;7.87;56.79;97846.97;2619589;54;20026;-63
2022/02/21 11:42:19;;;;;;;9.50;2.60;;;;;;;7.86;56.93;97853.25;2618526;54;20038;-63
2022/02/21 11:44:51;;;;;;;10.27;2.70;;;;;;;7.82;57.37;97857.28;2618432;54;20034;-63
2022/02/21 11:47:39;;;;;;;12.02;2.83;;;;;;;7.71;57.81;97873.63;2618558;47;20039;-64
2022/02/21 11:50:24;;;;;;;14.00;2.65;;;;;;;7.63;58.56;97871.16;2618789;54;20035;-64
2022/02/21 11:52:57;;;;;;;10.85;2.50;;;;;;;7.42;58.95;97875.53;2618841;54;20027;-63
2022/02/21 11:55:52;;;;;;;7.88;2.08;;;;;;;7.03;60.98;97885.84;2618451;54;20034;-62